Pembroke, Canada
Current Conditions -  °F | °C
As of 11:00 AM on Wednesday 22 Oct 2014 (Local Time) from CYWA Reporting Station
Overcast Overcast  
Wind Chill: 43°   Ceiling: 3300
Heat Index: 43°   Visibility: 9mi
Dew Point: 30°   Wind: 2mph
Humidity: 61%   Direction: 340°NNW
Pressure: 30.34"   Gusts: NA
Location:  45.83°N, 77.11°W
Report Text: CYWA 221500Z AUTO 34002KT 9SM OVC033 OVC049 06/M01 A3034 RMKSLP281
Loading
Personal Weather Stations






























Interactive Weather Map
Tropical Storm Tracking
New forecast layout! Learn more

10-Day Weather Forecast

Advertisements
Track Severe Weather on mobile